sensor_id;sensor_type;location;lat;lon;timestamp;pressure;altitude;pressure_sealevel;temperature;humidity
8298;BME280;4187;42.778;23.242;2023-08-30T11:14:49;94448.47;;;32.74;64.61
8298;BME280;4187;42.778;23.242;2023-08-30T11:17:32;94463.38;;;33.08;57.24
8298;BME280;4187;42.778;23.242;2023-08-30T11:20:10;94461.25;;;33.05;60.08
8298;BME280;4187;42.778;23.242;2023-08-30T11:22:40;94446.72;;;32.78;60.91
8298;BME280;4187;42.778;23.242;2023-08-30T11:25:08;94438.66;;;32.86;58.93
8298;BME280;4187;42.778;23.242;2023-08-30T11:27:36;94443.81;;;32.42;51.39
8298;BME280;4187;42.778;23.242;2023-08-30T11:30:06;94445.34;;;31.83;54.04
8298;BME280;4187;42.778;23.242;2023-08-30T11:32:34;94441.16;;;31.72;52.73
8298;BME280;4187;42.778;23.242;2023-08-30T11:35:06;94441.16;;;31.72;52.73
8298;BME280;4187;42.778;23.242;2023-08-30T11:37:33;94430.59;;;31.28;48.81
8298;BME280;4187;42.778;23.242;2023-08-30T11:40:03;94433.44;;;30.76;47.04
8298;BME280;4187;42.778;23.242;2023-08-30T11:42:31;94420.78;;;30.61;47.31
8298;BME280;4187;42.778;23.242;2023-08-30T11:44:59;94403.31;;;30.44;47.80
8298;BME280;4187;42.778;23.242;2023-08-30T11:47:27;94427.75;;;30.49;47.19
8298;BME280;4187;42.778;23.242;2023-08-30T11:49:55;94411.63;;;30.52;45.73
8298;BME280;4187;42.778;23.242;2023-08-30T11:52:23;94411.81;;;30.37;48.03
8298;BME280;4187;42.778;23.242;2023-08-30T11:54:50;94414.81;;;30.31;49.29
8298;BME280;4187;42.778;23.242;2023-08-30T11:57:17;94412.56;;;30.43;50.91
8298;BME280;4187;42.778;23.242;2023-08-30T11:59:44;94410.09;;;30.46;48.84
8298;BME280;4187;42.778;23.242;2023-08-30T12:02:13;94369.56;;;30.40;49.42
8298;BME280;4187;42.778;23.242;2023-08-30T12:04:44;94403.63;;;30.85;49.29
8298;BME280;4187;42.778;23.242;2023-08-30T12:07:21;94411.13;;;30.98;49.27
8298;BME280;4187;42.778;23.242;2023-08-30T12:09:48;94409.81;;;30.90;48.44
8298;BME280;4187;42.778;23.242;2023-08-30T12:12:15;94401.47;;;31.05;47.60
8298;BME280;4187;42.778;23.242;2023-08-30T12:14:42;94384.53;;;31.08;48.67
8298;BME280;4187;42.778;23.242;2023-08-30T12:17:09;94395.53;;;31.41;50.56
8298;BME280;4187;42.778;23.242;2023-08-30T12:19:37;94403.06;;;31.49;46.30
8298;BME280;4187;42.778;23.242;2023-08-30T12:22:07;94339.22;;;31.12;46.78
8298;BME280;4187;42.778;23.242;2023-08-30T12:24:41;94384.41;;;31.56;48.76
8298;BME280;4187;42.778;23.242;2023-08-30T12:27:08;94386.19;;;31.65;45.18
8298;BME280;4187;42.778;23.242;2023-08-30T12:29:35;94386.41;;;31.50;43.96
8298;BME280;4187;42.778;23.242;2023-08-30T12:32:02;94380.75;;;31.42;44.51
8298;BME280;4187;42.778;23.242;2023-08-30T12:34:29;94372.38;;;31.38;44.49
8298;BME280;4187;42.778;23.242;2023-08-30T12:36:56;94374.88;;;31.34;42.64
8298;BME280;4187;42.778;23.242;2023-08-30T12:39:24;94370.69;;;31.61;46.95
8298;BME280;4187;42.778;23.242;2023-08-30T12:41:51;94365.03;;;31.89;43.71
8298;BME280;4187;42.778;23.242;2023-08-30T12:44:18;94356.53;;;31.91;41.85
8298;BME280;4187;42.778;23.242;2023-08-30T12:46:45;94374.00;;;31.76;38.86
8298;BME280;4187;42.778;23.242;2023-08-30T12:49:11;94371.81;;;31.22;39.31
8298;BME280;4187;42.778;23.242;2023-08-30T12:51:38;94365.69;;;30.88;39.41
8298;BME280;4187;42.778;23.242;2023-08-30T12:54:05;94358.50;;;30.78;40.95
8298;BME280;4187;42.778;23.242;2023-08-30T12:56:34;94354.06;;;30.83;41.17
8298;BME280;4187;42.778;23.242;2023-08-30T12:59:00;94347.00;;;30.82;40.41
8298;BME280;4187;42.778;23.242;2023-08-30T13:01:27;94349.34;;;30.88;42.96
8298;BME280;4187;42.778;23.242;2023-08-30T13:03:55;94352.84;;;30.94;41.93
8298;BME280;4187;42.778;23.242;2023-08-30T13:06:22;94347.63;;;30.97;43.68
8298;BME280;4187;42.778;23.242;2023-08-30T13:08:49;94350.44;;;31.11;43.81
8298;BME280;4187;42.778;23.242;2023-08-30T13:11:15;94344.53;;;31.04;43.02
8298;BME280;4187;42.778;23.242;2023-08-30T13:13:44;94345.06;;;31.24;41.34
8298;BME280;4187;42.778;23.242;2023-08-30T13:16:10;94328.91;;;31.09;38.20
8298;BME280;4187;42.778;23.242;2023-08-30T13:18:37;94353.00;;;31.21;39.10
8298;BME280;4187;42.778;23.242;2023-08-30T13:21:04;94352.00;;;31.17;38.51
8298;BME280;4187;42.778;23.242;2023-08-30T13:23:31;94354.56;;;31.08;39.66
8298;BME280;4187;42.778;23.242;2023-08-30T13:25:58;94352.94;;;31.07;39.22
8298;BME280;4187;42.778;23.242;2023-08-30T13:28:25;94314.00;;;30.83;39.22
8298;BME280;4187;42.778;23.242;2023-08-30T13:30:53;94337.75;;;31.01;41.12
8298;BME280;4187;42.778;23.242;2023-08-30T13:33:20;94341.09;;;31.17;38.67
8298;BME280;4187;42.778;23.242;2023-08-30T13:35:49;94341.94;;;31.31;38.68
8298;BME280;4187;42.778;23.242;2023-08-30T13:38:16;94351.00;;;31.45;38.84
8298;BME280;4187;42.778;23.242;2023-08-30T13:40:43;94361.47;;;31.38;36.12
8298;BME280;4187;42.778;23.242;2023-08-30T13:43:13;94354.75;;;30.93;34.99
8298;BME280;4187;42.778;23.242;2023-08-30T13:45:39;94369.44;;;30.73;38.35
8298;BME280;4187;42.778;23.242;2023-08-30T13:48:08;94365.16;;;30.67;39.46
8298;BME280;4187;42.778;23.242;2023-08-30T13:50:41;94360.28;;;30.64;46.15
8298;BME280;4187;42.778;23.242;2023-08-30T13:53:07;94356.53;;;30.60;53.11
8298;BME280;4187;42.778;23.242;2023-08-30T13:55:34;94350.78;;;30.62;52.64
8298;BME280;4187;42.778;23.242;2023-08-30T13:58:01;94338.44;;;30.69;53.88
8298;BME280;4187;42.778;23.242;2023-08-30T14:00:28;94352.91;;;30.89;52.35
8298;BME280;4187;42.778;23.242;2023-08-30T14:02:55;94359.13;;;31.13;52.58
8298;BME280;4187;42.778;23.242;2023-08-30T14:05:23;94358.19;;;31.22;51.90
8298;BME280;4187;42.778;23.242;2023-08-30T14:07:50;94318.47;;;30.98;49.72
8298;BME280;4187;42.778;23.242;2023-08-30T14:10:17;94355.22;;;31.19;50.26
8298;BME280;4187;42.778;23.242;2023-08-30T14:12:44;94356.91;;;31.15;48.50
8298;BME280;4187;42.778;23.242;2023-08-30T14:15:11;94349.38;;;31.07;48.52
8298;BME280;4187;42.778;23.242;2023-08-30T14:17:38;94342.19;;;30.97;51.14
8298;BME280;4187;42.778;23.242;2023-08-30T14:20:06;94350.28;;;31.02;51.56
8298;BME280;4187;42.778;23.242;2023-08-30T14:22:34;94351.34;;;30.83;52.45
8298;BME280;4187;42.778;23.242;2023-08-30T14:25:02;94345.13;;;30.58;54.92
8298;BME280;4187;42.778;23.242;2023-08-30T14:27:30;94363.31;;;30.63;53.42
8298;BME280;4187;42.778;23.242;2023-08-30T14:29:57;94346.47;;;30.37;54.73
8298;BME280;4187;42.778;23.242;2023-08-30T14:32:26;94363.84;;;30.41;55.69
8298;BME280;4187;42.778;23.242;2023-08-30T14:34:52;94365.47;;;30.42;55.70
8298;BME280;4187;42.778;23.242;2023-08-30T14:37:19;94382.31;;;30.68;56.38
8298;BME280;4187;42.778;23.242;2023-08-30T14:39:48;94368.16;;;30.66;56.40
8298;BME280;4187;42.778;23.242;2023-08-30T14:42:14;94365.06;;;30.54;55.51
8298;BME280;4187;42.778;23.242;2023-08-30T14:44:41;94386.19;;;30.62;55.95
8298;BME280;4187;42.778;23.242;2023-08-30T14:47:08;94389.97;;;30.42;56.34
8298;BME280;4187;42.778;23.242;2023-08-30T14:49:35;94395.59;;;30.22;57.18
8298;BME280;4187;42.778;23.242;2023-08-30T14:52:05;94391.56;;;30.19;57.58
8298;BME280;4187;42.778;23.242;2023-08-30T14:54:32;94379.34;;;29.88;58.28
8298;BME280;4187;42.778;23.242;2023-08-30T14:57:01;94389.69;;;29.86;57.27
8298;BME280;4187;42.778;23.242;2023-08-30T14:59:28;94397.19;;;29.66;56.96
8298;BME280;4187;42.778;23.242;2023-08-30T15:01:55;94383.91;;;29.59;57.71
8298;BME280;4187;42.778;23.242;2023-08-30T15:04:22;94403.81;;;29.54;57.74
8298;BME280;4187;42.778;23.242;2023-08-30T15:06:49;94409.63;;;29.38;57.72
8298;BME280;4187;42.778;23.242;2023-08-30T15:09:17;94408.56;;;29.34;58.73
8298;BME280;4187;42.778;23.242;2023-08-30T15:11:44;94417.03;;;29.27;58.00
8298;BME280;4187;42.778;23.242;2023-08-30T15:14:12;94413.06;;;29.04;58.34
8298;BME280;4187;42.778;23.242;2023-08-30T15:16:39;94409.63;;;28.84;58.23
8298;BME280;4187;42.778;23.242;2023-08-30T15:19:06;94413.75;;;28.71;59.27
8298;BME280;4187;42.778;23.242;2023-08-30T15:21:32;94418.38;;;28.66;60.60
8298;BME280;4187;42.778;23.242;2023-08-30T15:23:59;94415.38;;;28.72;60.77
8298;BME280;4187;42.778;23.242;2023-08-30T15:26:26;94416.47;;;28.76;59.01
8298;BME280;4187;42.778;23.242;2023-08-30T15:28:53;94415.88;;;28.79;59.45
8298;BME280;4187;42.778;23.242;2023-08-30T15:31:22;94425.13;;;28.78;59.71
8298;BME280;4187;42.778;23.242;2023-08-30T15:33:49;94425.13;;;28.83;59.38
8298;BME280;4187;42.778;23.242;2023-08-30T15:36:16;94422.59;;;28.97;58.49
8298;BME280;4187;42.778;23.242;2023-08-30T15:38:43;94413.06;;;29.04;59.13
8298;BME280;4187;42.778;23.242;2023-08-30T15:41:12;94421.13;;;29.20;58.26
8298;BME280;4187;42.778;23.242;2023-08-30T15:43:39;94421.44;;;29.13;57.49
8298;BME280;4187;42.778;23.242;2023-08-30T15:46:11;94423.06;;;29.09;56.89
8298;BME280;4187;42.778;23.242;2023-08-30T15:48:40;94428.84;;;28.97;56.53
8298;BME280;4187;42.778;23.242;2023-08-30T15:51:11;94441.63;;;28.97;57.40
8298;BME280;4187;42.778;23.242;2023-08-30T15:53:38;94432.97;;;28.85;57.52
8298;BME280;4187;42.778;23.242;2023-08-30T15:56:06;94420.28;;;28.70;58.36
8298;BME280;4187;42.778;23.242;2023-08-30T15:58:33;94428.47;;;28.65;56.74
8298;BME280;4187;42.778;23.242;2023-08-30T16:01:02;94442.28;;;28.64;58.13
8298;BME280;4187;42.778;23.242;2023-08-30T16:03:29;94437.16;;;28.57;57.54
8298;BME280;4187;42.778;23.242;2023-08-30T16:05:57;94424.41;;;28.42;58.16
8298;BME280;4187;42.778;23.242;2023-08-30T16:08:24;94443.94;;;28.49;58.46
8298;BME280;4187;42.778;23.242;2023-08-30T16:10:53;94440.69;;;28.42;58.86
8298;BME280;4187;42.778;23.242;2023-08-30T16:13:20;94442.09;;;28.35;59.32
8298;BME280;4187;42.778;23.242;2023-08-30T16:15:47;94454.84;;;28.34;59.79
8298;BME280;4187;42.778;23.242;2023-08-30T16:18:14;94444.00;;;28.24;59.92
8298;BME280;4187;42.778;23.242;2023-08-30T16:20:41;94450.22;;;28.20;60.52
8298;BME280;4187;42.778;23.242;2023-08-30T16:23:09;94457.59;;;28.14;61.19
8298;BME280;4187;42.778;23.242;2023-08-30T16:25:36;94454.84;;;27.99;61.13
8298;BME280;4187;42.778;23.242;2023-08-30T16:28:04;94463.25;;;27.87;60.51
8298;BME280;4187;42.778;23.242;2023-08-30T16:30:33;94465.16;;;27.82;61.26
8298;BME280;4187;42.778;23.242;2023-08-30T16:33:00;94460.28;;;27.69;61.93
8298;BME280;4187;42.778;23.242;2023-08-30T16:35:27;94458.66;;;27.63;61.89
8298;BME280;4187;42.778;23.242;2023-08-30T16:37:54;94466.78;;;27.63;61.74
8298;BME280;4187;42.778;23.242;2023-08-30T16:40:22;94471.09;;;27.59;62.15
8298;BME280;4187;42.778;23.242;2023-08-30T16:42:49;94470.56;;;27.57;62.88
8298;BME280;4187;42.778;23.242;2023-08-30T16:45:16;94457.03;;;27.47;62.75
8298;BME280;4187;42.778;23.242;2023-08-30T16:47:43;94469.22;;;27.54;64.02
8298;BME280;4187;42.778;23.242;2023-08-30T16:50:10;94476.78;;;27.52;63.02
8298;BME280;4187;42.778;23.242;2023-08-30T16:52:37;94484.13;;;27.52;63.67
8298;BME280;4187;42.778;23.242;2023-08-30T16:55:07;94488.19;;;27.49;64.77
8298;BME280;4187;42.778;23.242;2023-08-30T16:57:36;94485.72;;;27.43;64.86
8298;BME280;4187;42.778;23.242;2023-08-30T17:00:03;94487.28;;;27.39;65.64
8298;BME280;4187;42.778;23.242;2023-08-30T17:02:31;94490.50;;;27.25;68.00
8298;BME280;4187;42.778;23.242;2023-08-30T17:04:59;94486.16;;;27.14;69.22
8298;BME280;4187;42.778;23.242;2023-08-30T17:07:26;94492.91;;;27.12;69.73
8298;BME280;4187;42.778;23.242;2023-08-30T17:09:53;94487.22;;;27.08;70.04
8298;BME280;4187;42.778;23.242;2023-08-30T17:12:21;94501.84;;;27.07;70.47
8298;BME280;4187;42.778;23.242;2023-08-30T17:14:49;94502.91;;;27.06;70.71
8298;BME280;4187;42.778;23.242;2023-08-30T17:17:16;94501.81;;;26.92;71.98
8298;BME280;4187;42.778;23.242;2023-08-30T17:19:43;94509.63;;;26.89;71.97
8298;BME280;4187;42.778;23.242;2023-08-30T17:22:09;94515.19;;;26.72;72.80
8298;BME280;4187;42.778;23.242;2023-08-30T17:24:36;94495.59;;;26.55;72.51
8298;BME280;4187;42.778;23.242;2023-08-30T17:27:04;94510.53;;;26.57;71.23
8298;BME280;4187;42.778;23.242;2023-08-30T17:29:31;94519.72;;;26.56;69.05
8298;BME280;4187;42.778;23.242;2023-08-30T17:32:00;94519.59;;;26.41;69.50
8298;BME280;4187;42.778;23.242;2023-08-30T17:34:26;94528.44;;;26.27;69.33
8298;BME280;4187;42.778;23.242;2023-08-30T17:36:53;94526.91;;;26.09;69.66
8298;BME280;4187;42.778;23.242;2023-08-30T17:39:22;94532.84;;;25.74;72.57
8298;BME280;4187;42.778;23.242;2023-08-30T17:41:51;94534.97;;;25.45;75.32
8298;BME280;4187;42.778;23.242;2023-08-30T17:44:17;94539.63;;;25.28;77.12
8298;BME280;4187;42.778;23.242;2023-08-30T17:46:45;94551.47;;;25.22;78.07
8298;BME280;4187;42.778;23.242;2023-08-30T17:49:13;94553.47;;;25.10;82.10
8298;BME280;4187;42.778;23.242;2023-08-30T17:51:40;94559.69;;;25.11;78.56
8298;BME280;4187;42.778;23.242;2023-08-30T17:54:08;94573.19;;;25.11;79.51
8298;BME280;4187;42.778;23.242;2023-08-30T17:56:35;94569.06;;;25.03;80.04
8298;BME280;4187;42.778;23.242;2023-08-30T17:59:02;94567.78;;;24.89;80.50
8298;BME280;4187;42.778;23.242;2023-08-30T18:01:28;94581.38;;;24.61;81.73
8298;BME280;4187;42.778;23.242;2023-08-30T18:03:56;94571.44;;;24.28;82.93
8298;BME280;4187;42.778;23.242;2023-08-30T18:06:24;94581.31;;;23.89;84.37
8298;BME280;4187;42.778;23.242;2023-08-30T18:08:51;94576.53;;;23.63;86.60
8298;BME280;4187;42.778;23.242;2023-08-30T18:11:19;94560.84;;;23.32;87.46
8298;BME280;4187;42.778;23.242;2023-08-30T18:13:47;94576.53;;;23.23;89.22
8298;BME280;4187;42.778;23.242;2023-08-30T18:16:18;94579.06;;;23.01;91.33
8298;BME280;4187;42.778;23.242;2023-08-30T18:18:46;94578.66;;;22.81;92.11
8298;BME280;4187;42.778;23.242;2023-08-30T18:21:13;94579.25;;;22.60;93.82
8298;BME280;4187;42.778;23.242;2023-08-30T18:23:43;94593.38;;;22.55;94.77
8298;BME280;4187;42.778;23.242;2023-08-30T18:26:29;94597.50;;;22.35;95.61
8298;BME280;4187;42.778;23.242;2023-08-30T18:28:56;94584.50;;;22.20;95.92
8298;BME280;4187;42.778;23.242;2023-08-30T18:31:24;94593.88;;;22.29;95.75
8298;BME280;4187;42.778;23.242;2023-08-30T18:33:51;94546.81;;;21.85;96.38
8298;BME280;4187;42.778;23.242;2023-08-30T18:36:20;94592.31;;;22.10;96.61
8298;BME280;4187;42.778;23.242;2023-08-30T18:38:49;94597.47;;;22.00;97.62
8298;BME280;4187;42.778;23.242;2023-08-30T18:41:16;94601.16;;;21.87;98.39
8298;BME280;4187;42.778;23.242;2023-08-30T18:43:45;94605.66;;;21.75;99.11
8298;BME280;4187;42.778;23.242;2023-08-30T18:46:12;94591.03;;;21.60;100.00
8298;BME280;4187;42.778;23.242;2023-08-30T18:48:42;94591.56;;;21.50;100.00
8298;BME280;4187;42.778;23.242;2023-08-30T18:51:10;94583.00;;;21.30;100.00
8298;BME280;4187;42.778;23.242;2023-08-30T18:53:37;94607.78;;;21.43;100.00
8298;BME280;4187;42.778;23.242;2023-08-30T18:56:05;94611.56;;;21.36;100.00
8298;BME280;4187;42.778;23.242;2023-08-30T18:58:32;94599.44;;;21.33;100.00
8298;BME280;4187;42.778;23.242;2023-08-30T19:01:00;94609.22;;;21.28;100.00
8298;BME280;4187;42.778;23.242;2023-08-30T19:03:29;94603.81;;;21.16;100.00
8298;BME280;4187;42.778;23.242;2023-08-30T19:05:56;94614.03;;;21.08;100.00
8298;BME280;4187;42.778;23.242;2023-08-30T19:08:23;94609.16;;;20.98;100.00
8298;BME280;4187;42.778;23.242;2023-08-30T19:10:49;94623.31;;;21.05;100.00
8298;BME280;4187;42.778;23.242;2023-08-30T19:13:18;94610.84;;;20.93;100.00
8298;BME280;4187;42.778;23.242;2023-08-30T19:15:44;94615.25;;;20.87;100.00
8298;BME280;4187;42.778;23.242;2023-08-30T19:18:11;94620.41;;;20.88;100.00
8298;BME280;4187;42.778;23.242;2023-08-30T19:20:38;94632.69;;;20.96;100.00
8298;BME280;4187;42.778;23.242;2023-08-30T19:23:05;94641.94;;;21.00;100.00
8298;BME280;4187;42.778;23.242;2023-08-30T19:25:32;94643.81;;;21.00;100.00
8298;BME280;4187;42.778;23.242;2023-08-30T19:41:51;94662.34;;;20.65;100.00
8298;BME280;4187;42.778;23.242;2023-08-30T19:44:18;94657.88;;;20.77;100.00
8298;BME280;4187;42.778;23.242;2023-08-30T19:46:45;94668.97;;;20.99;100.00
8298;BME280;4187;42.778;23.242;2023-08-30T19:49:12;94662.97;;;21.03;100.00
8298;BME280;4187;42.778;23.242;2023-08-30T19:51:39;94668.72;;;21.07;100.00
8298;BME280;4187;42.778;23.242;2023-08-30T19:54:05;94674.91;;;21.07;100.00
8298;BME280;4187;42.778;23.242;2023-08-30T19:56:32;94669.09;;;21.10;100.00
8298;BME280;4187;42.778;23.242;2023-08-30T19:59:03;94683.34;;;21.11;100.00
8298;BME280;4187;42.778;23.242;2023-08-30T20:01:30;94684.59;;;21.08;100.00
8298;BME280;4187;42.778;23.242;2023-08-30T20:03:59;94684.81;;;21.07;100.00
8298;BME280;4187;42.778;23.242;2023-08-30T20:06:26;94675.16;;;20.99;100.00
8298;BME280;4187;42.778;23.242;2023-08-30T20:08:53;94662.50;;;20.88;100.00
8298;BME280;4187;42.778;23.242;2023-08-30T20:11:20;94684.94;;;20.94;100.00
8298;BME280;4187;42.778;23.242;2023-08-30T20:13:47;94686.13;;;20.98;100.00
8298;BME280;4187;42.778;23.242;2023-08-30T20:16:16;94690.06;;;20.95;100.00
8298;BME280;4187;42.778;23.242;2023-08-30T20:18:43;94686.25;;;20.84;100.00
8298;BME280;4187;42.778;23.242;2023-08-30T20:21:13;94692.44;;;20.85;100.00
8298;BME280;4187;42.778;23.242;2023-08-30T20:23:40;94703.03;;;20.80;100.00
8298;BME280;4187;42.778;23.242;2023-08-30T20:26:09;94702.63;;;20.76;100.00
8298;BME280;4187;42.778;23.242;2023-08-30T20:28:36;94680.94;;;20.60;100.00
8298;BME280;4187;42.778;23.242;2023-08-30T20:31:03;94678.88;;;20.62;100.00
8298;BME280;4187;42.778;23.242;2023-08-30T20:33:32;94690.78;;;20.66;100.00
8298;BME280;4187;42.778;23.242;2023-08-30T20:36:04;94692.03;;;20.63;100.00
8298;BME280;4187;42.778;23.242;2023-08-30T20:38:31;94676.31;;;20.49;100.00
8298;BME280;4187;42.778;23.242;2023-08-30T20:40:57;94702.22;;;20.55;100.00
8298;BME280;4187;42.778;23.242;2023-08-30T20:43:25;94713.56;;;20.57;100.00
8298;BME280;4187;42.778;23.242;2023-08-30T20:45:54;94708.63;;;20.54;100.00
8298;BME280;4187;42.778;23.242;2023-08-30T20:48:20;94712.63;;;20.45;100.00
8298;BME280;4187;42.778;23.242;2023-08-30T20:50:54;94722.75;;;20.43;100.00
8298;BME280;4187;42.778;23.242;2023-08-30T20:53:30;94712.28;;;20.35;100.00
8298;BME280;4187;42.778;23.242;2023-08-30T20:55:57;94723.69;;;20.30;100.00
8298;BME280;4187;42.778;23.242;2023-08-30T20:58:24;94730.50;;;20.26;100.00
8298;BME280;4187;42.778;23.242;2023-08-30T21:00:54;94711.41;;;20.09;100.00
8298;BME280;4187;42.778;23.242;2023-08-30T21:03:21;94733.00;;;20.14;100.00
8298;BME280;4187;42.778;23.242;2023-08-30T21:05:50;94733.66;;;20.10;100.00
8298;BME280;4187;42.778;23.242;2023-08-30T21:08:18;94734.59;;;19.97;100.00
8298;BME280;4187;42.778;23.242;2023-08-30T21:10:45;94738.94;;;19.92;100.00
8298;BME280;4187;42.778;23.242;2023-08-30T21:13:13;94739.53;;;19.94;100.00
8298;BME280;4187;42.778;23.242;2023-08-30T21:15:40;94742.69;;;19.84;100.00
8298;BME280;4187;42.778;23.242;2023-08-30T21:18:07;94742.69;;;19.84;100.00
8298;BME280;4187;42.778;23.242;2023-08-30T21:20:34;94719.47;;;19.72;100.00
8298;BME280;4187;42.778;23.242;2023-08-30T21:23:04;94739.19;;;19.84;100.00
8298;BME280;4187;42.778;23.242;2023-08-30T21:25:37;94744.50;;;19.90;100.00
8298;BME280;4187;42.778;23.242;2023-08-30T21:28:04;94726.31;;;19.67;100.00
8298;BME280;4187;42.778;23.242;2023-08-30T21:30:36;94696.56;;;19.44;100.00
8298;BME280;4187;42.778;23.242;2023-08-30T21:33:04;94747.72;;;19.67;100.00
8298;BME280;4187;42.778;23.242;2023-08-30T21:35:36;94744.63;;;19.64;100.00
8298;BME280;4187;42.778;23.242;2023-08-30T21:38:05;94764.38;;;19.76;100.00
8298;BME280;4187;42.778;23.242;2023-08-30T21:40:32;94763.38;;;19.71;100.00
8298;BME280;4187;42.778;23.242;2023-08-30T21:42:59;94758.81;;;19.71;100.00
8298;BME280;4187;42.778;23.242;2023-08-30T21:45:26;94770.41;;;19.52;100.00
8298;BME280;4187;42.778;23.242;2023-08-30T21:47:52;94755.47;;;19.25;100.00
8298;BME280;4187;42.778;23.242;2023-08-30T21:50:19;94750.56;;;19.15;100.00
8298;BME280;4187;42.778;23.242;2023-08-30T21:52:46;94753.84;;;19.17;100.00
8298;BME280;4187;42.778;23.242;2023-08-30T21:55:14;94756.09;;;19.20;100.00
8298;BME280;4187;42.778;23.242;2023-08-30T21:57:43;94753.41;;;19.20;100.00
8298;BME280;4187;42.778;23.242;2023-08-30T22:00:11;94751.97;;;19.18;100.00
8298;BME280;4187;42.778;23.242;2023-08-30T22:02:40;94758.94;;;19.25;100.00
8298;BME280;4187;42.778;23.242;2023-08-30T22:05:08;94757.94;;;19.26;100.00
8298;BME280;4187;42.778;23.242;2023-08-30T22:07:36;94761.25;;;19.15;100.00
8298;BME280;4187;42.778;23.242;2023-08-30T22:10:03;94753.63;;;19.19;100.00
8298;BME280;4187;42.778;23.242;2023-08-30T22:12:33;94746.91;;;19.03;100.00
8298;BME280;4187;42.778;23.242;2023-08-30T22:15:00;94745.50;;;18.81;100.00
8298;BME280;4187;42.778;23.242;2023-08-30T22:17:27;94735.63;;;18.75;100.00
8298;BME280;4187;42.778;23.242;2023-08-30T22:19:55;94752.47;;;18.88;100.00
8298;BME280;4187;42.778;23.242;2023-08-30T22:22:22;94741.56;;;18.83;100.00
8298;BME280;4187;42.778;23.242;2023-08-30T22:24:49;94748.78;;;18.83;100.00
8298;BME280;4187;42.778;23.242;2023-08-30T22:27:16;94743.44;;;18.89;100.00
8298;BME280;4187;42.778;23.242;2023-08-30T22:29:45;94749.19;;;18.86;100.00
8298;BME280;4187;42.778;23.242;2023-08-30T22:32:11;94754.34;;;18.81;100.00
8298;BME280;4187;42.778;23.242;2023-08-30T22:34:38;94735.84;;;18.67;100.00
8298;BME280;4187;42.778;23.242;2023-08-30T22:37:05;94755.13;;;18.82;100.00
8298;BME280;4187;42.778;23.242;2023-08-30T22:39:32;94757.41;;;18.85;100.00
8298;BME280;4187;42.778;23.242;2023-08-30T22:41:59;94748.16;;;18.74;100.00
8298;BME280;4187;42.778;23.242;2023-08-30T22:44:26;94747.56;;;18.72;100.00
8298;BME280;4187;42.778;23.242;2023-08-30T22:46:54;94758.03;;;18.80;100.00
8298;BME280;4187;42.778;23.242;2023-08-30T22:49:21;94760.47;;;18.82;100.00
8298;BME280;4187;42.778;23.242;2023-08-30T22:51:48;94765.03;;;18.81;100.00
8298;BME280;4187;42.778;23.242;2023-08-30T22:54:17;94746.72;;;18.72;100.00
8298;BME280;4187;42.778;23.242;2023-08-30T22:56:46;94767.91;;;18.86;100.00
8298;BME280;4187;42.778;23.242;2023-08-30T22:59:14;94759.66;;;18.68;100.00
8298;BME280;4187;42.778;23.242;2023-08-30T23:01:41;94771.81;;;18.77;100.00
8298;BME280;4187;42.778;23.242;2023-08-30T23:04:10;94768.31;;;18.70;100.00
8298;BME280;4187;42.778;23.242;2023-08-30T23:06:37;94771.19;;;18.69;100.00
8298;BME280;4187;42.778;23.242;2023-08-30T23:09:04;94768.94;;;18.66;100.00
8298;BME280;4187;42.778;23.242;2023-08-30T23:11:31;94771.81;;;18.58;100.00
8298;BME280;4187;42.778;23.242;2023-08-30T23:13:58;94733.97;;;18.34;100.00
8298;BME280;4187;42.778;23.242;2023-08-30T23:16:26;94765.59;;;18.44;100.00
8298;BME280;4187;42.778;23.242;2023-08-30T23:18:53;94764.59;;;18.32;100.00
8298;BME280;4187;42.778;23.242;2023-08-30T23:21:21;94775.06;;;18.20;100.00
8298;BME280;4187;42.778;23.242;2023-08-30T23:23:48;94767.84;;;18.08;100.00
8298;BME280;4187;42.778;23.242;2023-08-30T23:26:15;94762.50;;;18.08;100.00
8298;BME280;4187;42.778;23.242;2023-08-30T23:28:42;94758.59;;;18.10;100.00
8298;BME280;4187;42.778;23.242;2023-08-30T23:31:09;94767.66;;;18.22;100.00
8298;BME280;4187;42.778;23.242;2023-08-30T23:33:37;94770.31;;;18.22;100.00
8298;BME280;4187;42.778;23.242;2023-08-30T23:36:04;94771.56;;;18.20;100.00
8298;BME280;4187;42.778;23.242;2023-08-30T23:38:33;94772.78;;;18.17;100.00
8298;BME280;4187;42.778;23.242;2023-08-30T23:41:00;94758.81;;;18.02;100.00
8298;BME280;4187;42.778;23.242;2023-08-30T23:43:27;94765.78;;;18.10;100.00
8298;BME280;4187;42.778;23.242;2023-08-30T23:45:54;94765.16;;;18.01;100.00
8298;BME280;4187;42.778;23.242;2023-08-30T23:48:22;94772.75;;;17.98;100.00
8298;BME280;4187;42.778;23.242;2023-08-30T23:50:49;94750.50;;;17.71;100.00
8298;BME280;4187;42.778;23.242;2023-08-30T23:53:16;94776.22;;;17.78;100.00
8298;BME280;4187;42.778;23.242;2023-08-30T23:55:47;94770.63;;;17.73;100.00
8298;BME280;4187;42.778;23.242;2023-08-30T23:58:15;94756.47;;;17.79;100.00
